sensor_id;sensor_type;location;lat;lon;timestamp;P1;durP1;ratioP1;P2;durP2;ratioP2
53833;SDS011;39735;51.432;5.482;2023-06-05T00:02:12;6.80;;;2.80;;
53833;SDS011;39735;51.432;5.482;2023-06-05T00:05:36;18.83;;;3.88;;
53833;SDS011;39735;51.432;5.482;2023-06-05T00:09:02;10.27;;;3.03;;
53833;SDS011;39735;51.432;5.482;2023-06-05T00:12:26;5.50;;;3.50;;
53833;SDS011;39735;51.432;5.482;2023-06-05T00:15:50;7.97;;;2.08;;
53833;SDS011;39735;51.432;5.482;2023-06-05T00:19:16;6.13;;;2.63;;
53833;SDS011;39735;51.432;5.482;2023-06-05T00:22:40;9.65;;;2.55;;
53833;SDS011;39735;51.432;5.482;2023-06-05T00:26:04;9.43;;;3.10;;
53833;SDS011;39735;51.432;5.482;2023-06-05T00:29:28;16.90;;;2.88;;
53833;SDS011;39735;51.432;5.482;2023-06-05T00:32:52;5.65;;;2.92;;
53833;SDS011;39735;51.432;5.482;2023-06-05T00:36:16;3.30;;;2.50;;
53833;SDS011;39735;51.432;5.482;2023-06-05T00:39:41;23.17;;;2.90;;
53833;SDS011;39735;51.432;5.482;2023-06-05T00:43:04;4.38;;;2.60;;
53833;SDS011;39735;51.432;5.482;2023-06-05T00:46:28;12.60;;;3.28;;
53833;SDS011;39735;51.432;5.482;2023-06-05T00:49:52;8.30;;;2.65;;
53833;SDS011;39735;51.432;5.482;2023-06-05T00:53:16;3.15;;;2.28;;
53833;SDS011;39735;51.432;5.482;2023-06-05T00:56:40;12.75;;;2.47;;
53833;SDS011;39735;51.432;5.482;2023-06-05T01:00:06;2.85;;;2.25;;
53833;SDS011;39735;51.432;5.482;2023-06-05T01:03:30;5.15;;;2.20;;
53833;SDS011;39735;51.432;5.482;2023-06-05T01:06:55;30.10;;;4.00;;
53833;SDS011;39735;51.432;5.482;2023-06-05T01:10:19;3.60;;;2.15;;
53833;SDS011;39735;51.432;5.482;2023-06-05T01:13:54;11.73;;;3.83;;
53833;SDS011;39735;51.432;5.482;2023-06-05T01:17:23;11.27;;;2.42;;
53833;SDS011;39735;51.432;5.482;2023-06-05T01:20:48;5.97;;;3.30;;
53833;SDS011;39735;51.432;5.482;2023-06-05T01:24:12;5.32;;;2.75;;
53833;SDS011;39735;51.432;5.482;2023-06-05T01:27:51;13.10;;;3.35;;
53833;SDS011;39735;51.432;5.482;2023-06-05T01:31:18;10.05;;;4.30;;
53833;SDS011;39735;51.432;5.482;2023-06-05T01:34:47;4.53;;;3.63;;
53833;SDS011;39735;51.432;5.482;2023-06-05T01:38:16;11.45;;;2.70;;
53833;SDS011;39735;51.432;5.482;2023-06-05T01:41:43;4.00;;;2.78;;
53833;SDS011;39735;51.432;5.482;2023-06-05T01:45:08;29.00;;;5.57;;
53833;SDS011;39735;51.432;5.482;2023-06-05T01:48:33;4.82;;;3.78;;
53833;SDS011;39735;51.432;5.482;2023-06-05T01:51:57;9.73;;;4.40;;
53833;SDS011;39735;51.432;5.482;2023-06-05T01:55:21;10.00;;;4.00;;
53833;SDS011;39735;51.432;5.482;2023-06-05T01:58:48;11.75;;;3.10;;
53833;SDS011;39735;51.432;5.482;2023-06-05T02:02:14;9.15;;;3.42;;
53833;SDS011;39735;51.432;5.482;2023-06-05T02:05:40;9.82;;;4.30;;
53833;SDS011;39735;51.432;5.482;2023-06-05T02:09:11;5.38;;;3.28;;
53833;SDS011;39735;51.432;5.482;2023-06-05T02:12:35;3.35;;;2.85;;
53833;SDS011;39735;51.432;5.482;2023-06-05T02:15:59;12.73;;;4.22;;
53833;SDS011;39735;51.432;5.482;2023-06-05T02:19:23;12.75;;;4.82;;
53833;SDS011;39735;51.432;5.482;2023-06-05T02:22:49;19.58;;;4.97;;
53833;SDS011;39735;51.432;5.482;2023-06-05T02:26:15;15.07;;;5.28;;
53833;SDS011;39735;51.432;5.482;2023-06-05T02:29:41;7.35;;;4.65;;
53833;SDS011;39735;51.432;5.482;2023-06-05T02:33:10;11.70;;;3.80;;
53833;SDS011;39735;51.432;5.482;2023-06-05T02:36:35;12.05;;;4.20;;
53833;SDS011;39735;51.432;5.482;2023-06-05T02:40:12;18.75;;;4.63;;
53833;SDS011;39735;51.432;5.482;2023-06-05T02:43:36;18.00;;;7.40;;
53833;SDS011;39735;51.432;5.482;2023-06-05T02:47:00;7.47;;;3.92;;
53833;SDS011;39735;51.432;5.482;2023-06-05T02:50:24;5.25;;;3.83;;
53833;SDS011;39735;51.432;5.482;2023-06-05T02:53:48;9.68;;;4.10;;
53833;SDS011;39735;51.432;5.482;2023-06-05T02:57:12;11.82;;;5.53;;
53833;SDS011;39735;51.432;5.482;2023-06-05T03:00:38;13.50;;;4.88;;
53833;SDS011;39735;51.432;5.482;2023-06-05T03:04:01;12.60;;;6.35;;
53833;SDS011;39735;51.432;5.482;2023-06-05T03:07:26;24.15;;;6.75;;
53833;SDS011;39735;51.432;5.482;2023-06-05T03:10:51;30.10;;;6.75;;
53833;SDS011;39735;51.432;5.482;2023-06-05T03:14:15;14.35;;;6.30;;
53833;SDS011;39735;51.432;5.482;2023-06-05T03:17:41;8.45;;;4.20;;
53833;SDS011;39735;51.432;5.482;2023-06-05T03:21:05;11.45;;;4.72;;
53833;SDS011;39735;51.432;5.482;2023-06-05T03:24:30;8.40;;;5.22;;
53833;SDS011;39735;51.432;5.482;2023-06-05T03:27:54;10.32;;;5.85;;
53833;SDS011;39735;51.432;5.482;2023-06-05T03:31:18;14.15;;;4.70;;
53833;SDS011;39735;51.432;5.482;2023-06-05T03:34:42;24.08;;;4.20;;
53833;SDS011;39735;51.432;5.482;2023-06-05T03:38:07;11.65;;;5.50;;
53833;SDS011;39735;51.432;5.482;2023-06-05T03:41:31;8.77;;;4.70;;
53833;SDS011;39735;51.432;5.482;2023-06-05T03:44:55;9.40;;;4.65;;
53833;SDS011;39735;51.432;5.482;2023-06-05T03:48:19;6.30;;;5.03;;
53833;SDS011;39735;51.432;5.482;2023-06-05T03:55:09;6.00;;;5.45;;
53833;SDS011;39735;51.432;5.482;2023-06-05T03:58:33;10.88;;;5.72;;
53833;SDS011;39735;51.432;5.482;2023-06-05T04:01:58;20.50;;;7.32;;
53833;SDS011;39735;51.432;5.482;2023-06-05T04:05:23;8.15;;;5.80;;
53833;SDS011;39735;51.432;5.482;2023-06-05T04:08:47;6.90;;;5.68;;
53833;SDS011;39735;51.432;5.482;2023-06-05T04:12:11;12.57;;;5.85;;
53833;SDS011;39735;51.432;5.482;2023-06-05T04:15:34;15.55;;;5.20;;
53833;SDS011;39735;51.432;5.482;2023-06-05T04:18:59;12.68;;;5.50;;
53833;SDS011;39735;51.432;5.482;2023-06-05T04:22:23;11.15;;;5.10;;
53833;SDS011;39735;51.432;5.482;2023-06-05T04:25:47;15.00;;;5.40;;
53833;SDS011;39735;51.432;5.482;2023-06-05T04:29:12;6.53;;;5.75;;
53833;SDS011;39735;51.432;5.482;2023-06-05T04:32:37;12.50;;;5.85;;
53833;SDS011;39735;51.432;5.482;2023-06-05T04:36:01;13.73;;;6.55;;
53833;SDS011;39735;51.432;5.482;2023-06-05T04:39:26;25.93;;;7.83;;
53833;SDS011;39735;51.432;5.482;2023-06-05T04:42:50;6.28;;;5.53;;
53833;SDS011;39735;51.432;5.482;2023-06-05T04:46:15;31.80;;;8.60;;
53833;SDS011;39735;51.432;5.482;2023-06-05T04:49:39;13.45;;;6.47;;
53833;SDS011;39735;51.432;5.482;2023-06-05T04:53:03;15.23;;;8.23;;
53833;SDS011;39735;51.432;5.482;2023-06-05T04:56:28;11.77;;;6.80;;
53833;SDS011;39735;51.432;5.482;2023-06-05T04:59:52;8.43;;;7.40;;
53833;SDS011;39735;51.432;5.482;2023-06-05T05:03:16;17.08;;;7.28;;
53833;SDS011;39735;51.432;5.482;2023-06-05T05:06:40;17.50;;;7.00;;
53833;SDS011;39735;51.432;5.482;2023-06-05T05:10:05;24.15;;;8.23;;
53833;SDS011;39735;51.432;5.482;2023-06-05T05:13:29;14.88;;;8.60;;
53833;SDS011;39735;51.432;5.482;2023-06-05T05:16:54;36.17;;;9.07;;
53833;SDS011;39735;51.432;5.482;2023-06-05T05:20:18;11.43;;;9.05;;
53833;SDS011;39735;51.432;5.482;2023-06-05T05:23:43;10.75;;;7.35;;
53833;SDS011;39735;51.432;5.482;2023-06-05T05:27:07;16.40;;;8.93;;
53833;SDS011;39735;51.432;5.482;2023-06-05T05:30:31;17.13;;;11.55;;
53833;SDS011;39735;51.432;5.482;2023-06-05T05:33:55;27.60;;;8.18;;
53833;SDS011;39735;51.432;5.482;2023-06-05T05:37:19;20.63;;;8.82;;
53833;SDS011;39735;51.432;5.482;2023-06-05T05:40:43;11.00;;;9.90;;
53833;SDS011;39735;51.432;5.482;2023-06-05T05:44:07;16.83;;;10.00;;
53833;SDS011;39735;51.432;5.482;2023-06-05T05:47:32;9.90;;;8.52;;
53833;SDS011;39735;51.432;5.482;2023-06-05T05:50:55;20.50;;;9.57;;
53833;SDS011;39735;51.432;5.482;2023-06-05T05:54:19;18.92;;;8.75;;
53833;SDS011;39735;51.432;5.482;2023-06-05T05:57:43;11.93;;;10.18;;
53833;SDS011;39735;51.432;5.482;2023-06-05T06:01:08;16.30;;;9.93;;
53833;SDS011;39735;51.432;5.482;2023-06-05T06:04:34;27.25;;;10.57;;
53833;SDS011;39735;51.432;5.482;2023-06-05T06:07:58;26.35;;;10.93;;
53833;SDS011;39735;51.432;5.482;2023-06-05T06:11:22;11.80;;;8.88;;
53833;SDS011;39735;51.432;5.482;2023-06-05T06:14:46;16.92;;;9.02;;
53833;SDS011;39735;51.432;5.482;2023-06-05T06:18:10;10.68;;;9.63;;
53833;SDS011;39735;51.432;5.482;2023-06-05T06:21:39;21.65;;;9.40;;
53833;SDS011;39735;51.432;5.482;2023-06-05T06:25:03;20.88;;;10.57;;
53833;SDS011;39735;51.432;5.482;2023-06-05T06:28:26;15.68;;;9.93;;
53833;SDS011;39735;51.432;5.482;2023-06-05T06:31:52;16.10;;;10.98;;
53833;SDS011;39735;51.432;5.482;2023-06-05T06:35:16;23.00;;;10.95;;
53833;SDS011;39735;51.432;5.482;2023-06-05T06:42:06;19.35;;;11.48;;
53833;SDS011;39735;51.432;5.482;2023-06-05T06:45:30;22.30;;;10.48;;
53833;SDS011;39735;51.432;5.482;2023-06-05T06:48:55;29.67;;;11.05;;
53833;SDS011;39735;51.432;5.482;2023-06-05T06:52:19;30.67;;;14.10;;
53833;SDS011;39735;51.432;5.482;2023-06-05T06:55:43;18.30;;;10.60;;
53833;SDS011;39735;51.432;5.482;2023-06-05T06:59:14;22.40;;;10.60;;
53833;SDS011;39735;51.432;5.482;2023-06-05T07:02:39;22.75;;;11.18;;
53833;SDS011;39735;51.432;5.482;2023-06-05T07:06:05;12.57;;;9.80;;
53833;SDS011;39735;51.432;5.482;2023-06-05T07:09:29;16.23;;;12.10;;
53833;SDS011;39735;51.432;5.482;2023-06-05T07:12:53;19.75;;;10.88;;
53833;SDS011;39735;51.432;5.482;2023-06-05T07:16:19;11.23;;;9.30;;
53833;SDS011;39735;51.432;5.482;2023-06-05T07:19:43;15.77;;;11.02;;
53833;SDS011;39735;51.432;5.482;2023-06-05T07:23:07;15.27;;;11.20;;
53833;SDS011;39735;51.432;5.482;2023-06-05T07:26:31;14.02;;;12.00;;
53833;SDS011;39735;51.432;5.482;2023-06-05T07:29:55;23.13;;;11.07;;
53833;SDS011;39735;51.432;5.482;2023-06-05T07:33:18;16.20;;;11.27;;
53833;SDS011;39735;51.432;5.482;2023-06-05T07:36:44;19.10;;;9.80;;
53833;SDS011;39735;51.432;5.482;2023-06-05T07:40:08;13.98;;;11.48;;
53833;SDS011;39735;51.432;5.482;2023-06-05T07:43:33;25.33;;;12.32;;
53833;SDS011;39735;51.432;5.482;2023-06-05T07:46:57;17.13;;;12.02;;
53833;SDS011;39735;51.432;5.482;2023-06-05T07:50:21;16.48;;;11.43;;
53833;SDS011;39735;51.432;5.482;2023-06-05T07:53:45;17.40;;;10.68;;
53833;SDS011;39735;51.432;5.482;2023-06-05T07:57:09;18.50;;;11.00;;
53833;SDS011;39735;51.432;5.482;2023-06-05T08:00:33;30.83;;;10.10;;
53833;SDS011;39735;51.432;5.482;2023-06-05T08:04:01;23.88;;;12.38;;
53833;SDS011;39735;51.432;5.482;2023-06-05T08:07:25;15.68;;;9.30;;
53833;SDS011;39735;51.432;5.482;2023-06-05T08:10:50;17.90;;;9.63;;
53833;SDS011;39735;51.432;5.482;2023-06-05T08:14:14;27.55;;;10.75;;
53833;SDS011;39735;51.432;5.482;2023-06-05T08:17:38;19.15;;;10.60;;
53833;SDS011;39735;51.432;5.482;2023-06-05T08:21:02;19.52;;;9.82;;
53833;SDS011;39735;51.432;5.482;2023-06-05T08:24:26;10.40;;;9.02;;
53833;SDS011;39735;51.432;5.482;2023-06-05T08:27:50;24.15;;;9.57;;
53833;SDS011;39735;51.432;5.482;2023-06-05T08:31:14;19.17;;;8.77;;
53833;SDS011;39735;51.432;5.482;2023-06-05T08:34:39;18.38;;;9.20;;
53833;SDS011;39735;51.432;5.482;2023-06-05T08:38:06;17.23;;;7.35;;
53833;SDS011;39735;51.432;5.482;2023-06-05T08:41:30;24.90;;;7.75;;
53833;SDS011;39735;51.432;5.482;2023-06-05T08:44:55;12.00;;;9.13;;
53833;SDS011;39735;51.432;5.482;2023-06-05T08:48:20;14.95;;;6.93;;
53833;SDS011;39735;51.432;5.482;2023-06-05T08:51:45;22.60;;;8.45;;
53833;SDS011;39735;51.432;5.482;2023-06-05T08:55:14;12.38;;;9.02;;
53833;SDS011;39735;51.432;5.482;2023-06-05T08:58:38;10.75;;;7.03;;
53833;SDS011;39735;51.432;5.482;2023-06-05T09:02:03;17.30;;;7.03;;
53833;SDS011;39735;51.432;5.482;2023-06-05T09:05:27;14.63;;;7.13;;
53833;SDS011;39735;51.432;5.482;2023-06-05T09:12:16;8.95;;;7.05;;
53833;SDS011;39735;51.432;5.482;2023-06-05T09:15:40;12.85;;;6.45;;
53833;SDS011;39735;51.432;5.482;2023-06-05T09:19:04;15.00;;;7.15;;
53833;SDS011;39735;51.432;5.482;2023-06-05T09:22:32;11.68;;;5.35;;
53833;SDS011;39735;51.432;5.482;2023-06-05T09:25:57;24.42;;;7.68;;
53833;SDS011;39735;51.432;5.482;2023-06-05T09:32:46;15.90;;;7.82;;
53833;SDS011;39735;51.432;5.482;2023-06-05T09:36:11;24.77;;;7.55;;
53833;SDS011;39735;51.432;5.482;2023-06-05T09:39:37;14.77;;;7.85;;
53833;SDS011;39735;51.432;5.482;2023-06-05T09:43:12;34.42;;;7.63;;
53833;SDS011;39735;51.432;5.482;2023-06-05T09:47:10;15.02;;;7.63;;
53833;SDS011;39735;51.432;5.482;2023-06-05T09:50:37;26.15;;;9.40;;
53833;SDS011;39735;51.432;5.482;2023-06-05T09:54:01;20.35;;;7.78;;
53833;SDS011;39735;51.432;5.482;2023-06-05T09:57:28;10.40;;;6.93;;
53833;SDS011;39735;51.432;5.482;2023-06-05T10:00:53;30.00;;;9.93;;
53833;SDS011;39735;51.432;5.482;2023-06-05T10:04:21;28.42;;;7.63;;
53833;SDS011;39735;51.432;5.482;2023-06-05T10:07:46;20.45;;;9.55;;
53833;SDS011;39735;51.432;5.482;2023-06-05T10:11:12;20.23;;;9.23;;
53833;SDS011;39735;51.432;5.482;2023-06-05T10:14:36;13.65;;;7.38;;
53833;SDS011;39735;51.432;5.482;2023-06-05T10:18:01;11.00;;;6.40;;
53833;SDS011;39735;51.432;5.482;2023-06-05T10:21:25;20.38;;;7.38;;
53833;SDS011;39735;51.432;5.482;2023-06-05T10:24:51;16.90;;;5.88;;
53833;SDS011;39735;51.432;5.482;2023-06-05T10:31:59;9.10;;;5.78;;
53833;SDS011;39735;51.432;5.482;2023-06-05T10:35:45;9.77;;;7.03;;
53833;SDS011;39735;51.432;5.482;2023-06-05T10:39:28;19.25;;;7.75;;
53833;SDS011;39735;51.432;5.482;2023-06-05T10:42:52;6.85;;;5.47;;
53833;SDS011;39735;51.432;5.482;2023-06-05T10:50:20;11.13;;;5.53;;
53833;SDS011;39735;51.432;5.482;2023-06-05T10:54:03;15.23;;;5.72;;
53833;SDS011;39735;51.432;5.482;2023-06-05T10:57:27;12.80;;;7.03;;
53833;SDS011;39735;51.432;5.482;2023-06-05T11:01:30;8.10;;;6.40;;
53833;SDS011;39735;51.432;5.482;2023-06-05T11:08:35;15.73;;;6.53;;
53833;SDS011;39735;51.432;5.482;2023-06-05T11:11:59;9.90;;;5.22;;
53833;SDS011;39735;51.432;5.482;2023-06-05T11:19:06;12.77;;;4.38;;
53833;SDS011;39735;51.432;5.482;2023-06-05T11:26:39;19.25;;;4.72;;
53833;SDS011;39735;51.432;5.482;2023-06-05T11:30:11;8.65;;;4.43;;
53833;SDS011;39735;51.432;5.482;2023-06-05T11:33:35;10.43;;;4.05;;
53833;SDS011;39735;51.432;5.482;2023-06-05T11:37:14;11.93;;;5.20;;
53833;SDS011;39735;51.432;5.482;2023-06-05T11:40:39;22.60;;;5.50;;
53833;SDS011;39735;51.432;5.482;2023-06-05T11:44:10;35.75;;;6.95;;
53833;SDS011;39735;51.432;5.482;2023-06-05T11:47:37;9.95;;;5.25;;
53833;SDS011;39735;51.432;5.482;2023-06-05T11:51:07;15.93;;;5.65;;
53833;SDS011;39735;51.432;5.482;2023-06-05T11:54:31;14.77;;;4.60;;
53833;SDS011;39735;51.432;5.482;2023-06-05T11:58:08;10.45;;;4.78;;
53833;SDS011;39735;51.432;5.482;2023-06-05T12:04:57;11.18;;;4.05;;
53833;SDS011;39735;51.432;5.482;2023-06-05T12:08:23;9.13;;;3.13;;
53833;SDS011;39735;51.432;5.482;2023-06-05T12:11:47;13.80;;;5.45;;
53833;SDS011;39735;51.432;5.482;2023-06-05T12:15:18;13.35;;;3.45;;
53833;SDS011;39735;51.432;5.482;2023-06-05T12:18:43;23.98;;;3.47;;
53833;SDS011;39735;51.432;5.482;2023-06-05T12:22:07;7.22;;;3.60;;
53833;SDS011;39735;51.432;5.482;2023-06-05T12:25:32;16.25;;;4.22;;
53833;SDS011;39735;51.432;5.482;2023-06-05T12:32:42;13.63;;;4.00;;
53833;SDS011;39735;51.432;5.482;2023-06-05T12:36:12;19.80;;;4.30;;
53833;SDS011;39735;51.432;5.482;2023-06-05T12:39:37;3.40;;;2.88;;
53833;SDS011;39735;51.432;5.482;2023-06-05T12:43:01;2.60;;;2.50;;
53833;SDS011;39735;51.432;5.482;2023-06-05T12:46:26;9.52;;;4.00;;
53833;SDS011;39735;51.432;5.482;2023-06-05T12:49:50;8.50;;;2.92;;
53833;SDS011;39735;51.432;5.482;2023-06-05T12:53:14;24.80;;;3.20;;
53833;SDS011;39735;51.432;5.482;2023-06-05T12:56:39;8.45;;;3.20;;
53833;SDS011;39735;51.432;5.482;2023-06-05T13:00:03;14.30;;;6.53;;
53833;SDS011;39735;51.432;5.482;2023-06-05T13:03:28;20.65;;;4.68;;
53833;SDS011;39735;51.432;5.482;2023-06-05T13:06:53;22.67;;;2.30;;
53833;SDS011;39735;51.432;5.482;2023-06-05T13:10:19;3.75;;;2.05;;
53833;SDS011;39735;51.432;5.482;2023-06-05T13:13:43;12.13;;;2.58;;
53833;SDS011;39735;51.432;5.482;2023-06-05T13:17:07;9.63;;;1.70;;
53833;SDS011;39735;51.432;5.482;2023-06-05T13:20:32;6.05;;;2.22;;
53833;SDS011;39735;51.432;5.482;2023-06-05T13:23:56;3.42;;;2.05;;
53833;SDS011;39735;51.432;5.482;2023-06-05T13:27:20;7.88;;;2.53;;
53833;SDS011;39735;51.432;5.482;2023-06-05T13:30:44;10.18;;;2.83;;
53833;SDS011;39735;51.432;5.482;2023-06-05T13:34:08;7.45;;;2.50;;
53833;SDS011;39735;51.432;5.482;2023-06-05T13:37:33;3.22;;;2.92;;
53833;SDS011;39735;51.432;5.482;2023-06-05T13:40:56;24.02;;;3.53;;
53833;SDS011;39735;51.432;5.482;2023-06-05T13:44:20;3.47;;;2.33;;
53833;SDS011;39735;51.432;5.482;2023-06-05T13:47:44;11.23;;;2.80;;
53833;SDS011;39735;51.432;5.482;2023-06-05T13:51:08;2.20;;;2.03;;
53833;SDS011;39735;51.432;5.482;2023-06-05T13:54:32;8.25;;;2.42;;
53833;SDS011;39735;51.432;5.482;2023-06-05T13:57:56;12.65;;;5.28;;
53833;SDS011;39735;51.432;5.482;2023-06-05T14:01:20;6.25;;;2.50;;
53833;SDS011;39735;51.432;5.482;2023-06-05T14:04:44;5.40;;;2.67;;
53833;SDS011;39735;51.432;5.482;2023-06-05T14:08:07;8.60;;;2.78;;
53833;SDS011;39735;51.432;5.482;2023-06-05T14:11:31;3.22;;;2.35;;
53833;SDS011;39735;51.432;5.482;2023-06-05T14:14:56;6.13;;;1.92;;
53833;SDS011;39735;51.432;5.482;2023-06-05T14:18:20;2.15;;;1.67;;
53833;SDS011;39735;51.432;5.482;2023-06-05T14:21:44;6.20;;;2.35;;
53833;SDS011;39735;51.432;5.482;2023-06-05T14:25:08;5.43;;;2.22;;
53833;SDS011;39735;51.432;5.482;2023-06-05T14:28:32;9.03;;;2.77;;
53833;SDS011;39735;51.432;5.482;2023-06-05T14:31:57;7.70;;;2.58;;
53833;SDS011;39735;51.432;5.482;2023-06-05T14:35:22;9.80;;;2.70;;
53833;SDS011;39735;51.432;5.482;2023-06-05T14:38:46;2.55;;;2.38;;
53833;SDS011;39735;51.432;5.482;2023-06-05T14:42:10;2.08;;;1.90;;
53833;SDS011;39735;51.432;5.482;2023-06-05T14:45:34;10.93;;;2.33;;
53833;SDS011;39735;51.432;5.482;2023-06-05T14:48:58;15.95;;;2.53;;
53833;SDS011;39735;51.432;5.482;2023-06-05T14:52:22;10.40;;;2.65;;
53833;SDS011;39735;51.432;5.482;2023-06-05T14:55:46;8.27;;;2.95;;
53833;SDS011;39735;51.432;5.482;2023-06-05T14:59:12;38.08;;;2.85;;
53833;SDS011;39735;51.432;5.482;2023-06-05T15:02:16;7.03;;;2.25;;
53833;SDS011;39735;51.432;5.482;2023-06-05T15:05:40;18.23;;;4.53;;
53833;SDS011;39735;51.432;5.482;2023-06-05T15:08:23;3.17;;;1.58;;
53833;SDS011;39735;51.432;5.482;2023-06-05T15:11:47;11.85;;;2.35;;
53833;SDS011;39735;51.432;5.482;2023-06-05T15:15:11;7.13;;;2.42;;
53833;SDS011;39735;51.432;5.482;2023-06-05T15:18:36;8.13;;;2.15;;
53833;SDS011;39735;51.432;5.482;2023-06-05T15:22:00;14.30;;;2.33;;
53833;SDS011;39735;51.432;5.482;2023-06-05T15:25:24;11.63;;;2.10;;
53833;SDS011;39735;51.432;5.482;2023-06-05T15:28:48;13.45;;;2.42;;
53833;SDS011;39735;51.432;5.482;2023-06-05T15:32:11;8.95;;;2.47;;
53833;SDS011;39735;51.432;5.482;2023-06-05T15:35:36;3.95;;;1.95;;
53833;SDS011;39735;51.432;5.482;2023-06-05T15:39:00;8.68;;;2.50;;
53833;SDS011;39735;51.432;5.482;2023-06-05T15:42:27;9.15;;;2.70;;
53833;SDS011;39735;51.432;5.482;2023-06-05T15:45:51;4.85;;;2.20;;
53833;SDS011;39735;51.432;5.482;2023-06-05T15:49:15;7.50;;;2.78;;
53833;SDS011;39735;51.432;5.482;2023-06-05T15:52:40;8.32;;;2.75;;
53833;SDS011;39735;51.432;5.482;2023-06-05T15:56:04;7.40;;;2.40;;
53833;SDS011;39735;51.432;5.482;2023-06-05T15:59:30;13.65;;;1.60;;
53833;SDS011;39735;51.432;5.482;2023-06-05T16:02:54;7.65;;;2.00;;
53833;SDS011;39735;51.432;5.482;2023-06-05T16:06:19;20.65;;;2.88;;
53833;SDS011;39735;51.432;5.482;2023-06-05T16:09:43;6.20;;;2.03;;
53833;SDS011;39735;51.432;5.482;2023-06-05T16:13:07;7.53;;;2.97;;
53833;SDS011;39735;51.432;5.482;2023-06-05T16:16:31;8.95;;;2.67;;
53833;SDS011;39735;51.432;5.482;2023-06-05T16:19:55;2.45;;;1.83;;
53833;SDS011;39735;51.432;5.482;2023-06-05T16:23:19;5.60;;;2.08;;
53833;SDS011;39735;51.432;5.482;2023-06-05T16:26:43;4.28;;;2.20;;
53833;SDS011;39735;51.432;5.482;2023-06-05T16:30:07;10.65;;;1.80;;
53833;SDS011;39735;51.432;5.482;2023-06-05T16:33:33;9.15;;;2.40;;
53833;SDS011;39735;51.432;5.482;2023-06-05T16:36:57;3.00;;;1.80;;
53833;SDS011;39735;51.432;5.482;2023-06-05T16:40:21;7.53;;;2.47;;
53833;SDS011;39735;51.432;5.482;2023-06-05T16:43:45;2.63;;;1.50;;
53833;SDS011;39735;51.432;5.482;2023-06-05T16:47:09;5.68;;;2.20;;
53833;SDS011;39735;51.432;5.482;2023-06-05T16:50:36;4.03;;;1.95;;
53833;SDS011;39735;51.432;5.482;2023-06-05T16:54:00;4.47;;;1.92;;
53833;SDS011;39735;51.432;5.482;2023-06-05T16:57:23;4.15;;;2.20;;
53833;SDS011;39735;51.432;5.482;2023-06-05T17:00:47;4.20;;;2.08;;
53833;SDS011;39735;51.432;5.482;2023-06-05T17:04:11;3.90;;;2.92;;
53833;SDS011;39735;51.432;5.482;2023-06-05T17:07:35;33.67;;;2.15;;
53833;SDS011;39735;51.432;5.482;2023-06-05T17:10:59;3.60;;;2.40;;
53833;SDS011;39735;51.432;5.482;2023-06-05T17:14:24;16.13;;;2.78;;
53833;SDS011;39735;51.432;5.482;2023-06-05T17:17:48;14.65;;;3.47;;
53833;SDS011;39735;51.432;5.482;2023-06-05T17:21:12;9.57;;;4.15;;
53833;SDS011;39735;51.432;5.482;2023-06-05T17:24:35;8.00;;;4.05;;
53833;SDS011;39735;51.432;5.482;2023-06-05T17:28:00;8.80;;;5.88;;
53833;SDS011;39735;51.432;5.482;2023-06-05T17:31:27;16.67;;;5.13;;
53833;SDS011;39735;51.432;5.482;2023-06-05T17:34:51;16.48;;;3.88;;
53833;SDS011;39735;51.432;5.482;2023-06-05T17:38:15;14.00;;;6.03;;
53833;SDS011;39735;51.432;5.482;2023-06-05T17:41:39;17.13;;;6.40;;
53833;SDS011;39735;51.432;5.482;2023-06-05T17:45:03;13.48;;;4.40;;
53833;SDS011;39735;51.432;5.482;2023-06-05T17:48:27;7.72;;;4.78;;
53833;SDS011;39735;51.432;5.482;2023-06-05T17:55:16;23.65;;;4.82;;
53833;SDS011;39735;51.432;5.482;2023-06-05T17:58:40;6.75;;;4.90;;
53833;SDS011;39735;51.432;5.482;2023-06-05T18:02:04;8.20;;;6.32;;
53833;SDS011;39735;51.432;5.482;2023-06-05T18:05:28;8.00;;;6.30;;
53833;SDS011;39735;51.432;5.482;2023-06-05T18:08:52;8.30;;;5.72;;
53833;SDS011;39735;51.432;5.482;2023-06-05T18:12:16;9.02;;;5.55;;
53833;SDS011;39735;51.432;5.482;2023-06-05T18:15:40;24.98;;;5.55;;
53833;SDS011;39735;51.432;5.482;2023-06-05T18:19:04;19.30;;;5.15;;
53833;SDS011;39735;51.432;5.482;2023-06-05T18:22:29;21.45;;;6.43;;
53833;SDS011;39735;51.432;5.482;2023-06-05T18:25:54;7.50;;;5.00;;
53833;SDS011;39735;51.432;5.482;2023-06-05T18:29:18;28.95;;;5.53;;
53833;SDS011;39735;51.432;5.482;2023-06-05T18:32:42;14.98;;;4.93;;
53833;SDS011;39735;51.432;5.482;2023-06-05T18:36:06;21.40;;;6.05;;
53833;SDS011;39735;51.432;5.482;2023-06-05T18:39:30;27.17;;;7.53;;
53833;SDS011;39735;51.432;5.482;2023-06-05T18:42:54;10.25;;;6.72;;
53833;SDS011;39735;51.432;5.482;2023-06-05T18:46:18;9.95;;;5.60;;
53833;SDS011;39735;51.432;5.482;2023-06-05T18:49:42;5.90;;;4.72;;
53833;SDS011;39735;51.432;5.482;2023-06-05T18:53:06;10.82;;;6.28;;
53833;SDS011;39735;51.432;5.482;2023-06-05T18:56:30;29.60;;;6.30;;
53833;SDS011;39735;51.432;5.482;2023-06-05T18:59:54;9.75;;;5.40;;
53833;SDS011;39735;51.432;5.482;2023-06-05T19:03:18;17.10;;;6.05;;
53833;SDS011;39735;51.432;5.482;2023-06-05T19:06:43;13.88;;;5.63;;
53833;SDS011;39735;51.432;5.482;2023-06-05T19:10:08;15.20;;;6.00;;
53833;SDS011;39735;51.432;5.482;2023-06-05T19:13:32;9.85;;;5.85;;
53833;SDS011;39735;51.432;5.482;2023-06-05T19:16:55;13.35;;;6.68;;
53833;SDS011;39735;51.432;5.482;2023-06-05T19:20:19;9.82;;;6.53;;
53833;SDS011;39735;51.432;5.482;2023-06-05T19:23:44;6.07;;;5.43;;
53833;SDS011;39735;51.432;5.482;2023-06-05T19:27:08;9.07;;;5.57;;
53833;SDS011;39735;51.432;5.482;2023-06-05T19:30:32;13.70;;;7.15;;
53833;SDS011;39735;51.432;5.482;2023-06-05T19:33:56;12.52;;;5.47;;
53833;SDS011;39735;51.432;5.482;2023-06-05T19:37:20;22.52;;;9.00;;
53833;SDS011;39735;51.432;5.482;2023-06-05T19:40:44;13.48;;;6.30;;
53833;SDS011;39735;51.432;5.482;2023-06-05T19:44:09;10.30;;;5.63;;
53833;SDS011;39735;51.432;5.482;2023-06-05T19:47:33;11.60;;;7.68;;
53833;SDS011;39735;51.432;5.482;2023-06-05T19:50:57;13.52;;;8.13;;
53833;SDS011;39735;51.432;5.482;2023-06-05T19:54:21;13.02;;;7.80;;
53833;SDS011;39735;51.432;5.482;2023-06-05T19:57:45;15.23;;;7.40;;
53833;SDS011;39735;51.432;5.482;2023-06-05T20:01:10;12.02;;;7.72;;
53833;SDS011;39735;51.432;5.482;2023-06-05T20:04:34;13.02;;;7.38;;
53833;SDS011;39735;51.432;5.482;2023-06-05T20:07:57;13.18;;;7.18;;
53833;SDS011;39735;51.432;5.482;2023-06-05T20:11:21;22.13;;;7.15;;
53833;SDS011;39735;51.432;5.482;2023-06-05T20:14:45;21.83;;;7.10;;
53833;SDS011;39735;51.432;5.482;2023-06-05T20:18:09;22.75;;;8.07;;
53833;SDS011;39735;51.432;5.482;2023-06-05T20:21:33;8.85;;;6.38;;
53833;SDS011;39735;51.432;5.482;2023-06-05T20:24:57;18.33;;;8.15;;
53833;SDS011;39735;51.432;5.482;2023-06-05T20:28:21;16.83;;;9.30;;
53833;SDS011;39735;51.432;5.482;2023-06-05T20:31:45;13.85;;;9.90;;
53833;SDS011;39735;51.432;5.482;2023-06-05T20:35:09;12.13;;;8.85;;
53833;SDS011;39735;51.432;5.482;2023-06-05T20:38:35;14.18;;;8.15;;
53833;SDS011;39735;51.432;5.482;2023-06-05T20:42:00;28.38;;;8.63;;
53833;SDS011;39735;51.432;5.482;2023-06-05T20:45:25;13.27;;;9.10;;
53833;SDS011;39735;51.432;5.482;2023-06-05T20:48:51;11.20;;;9.07;;
53833;SDS011;39735;51.432;5.482;2023-06-05T20:52:15;13.82;;;8.00;;
53833;SDS011;39735;51.432;5.482;2023-06-05T20:55:39;16.38;;;9.85;;
53833;SDS011;39735;51.432;5.482;2023-06-05T20:59:03;15.65;;;7.43;;
53833;SDS011;39735;51.432;5.482;2023-06-05T21:05:52;19.13;;;8.77;;
53833;SDS011;39735;51.432;5.482;2023-06-05T21:09:16;18.50;;;10.52;;